sensor_id;sensor_type;location;lat;lon;timestamp;P1;durP1;ratioP1;P2;durP2;ratioP2
2748;SDS011;1382;52.142;11.618;2024-02-26T00:00:14;6.60;;;5.10;;
2748;SDS011;1382;52.142;11.618;2024-02-26T00:02:42;15.13;;;6.17;;
2748;SDS011;1382;52.142;11.618;2024-02-26T00:05:09;6.27;;;4.83;;
2748;SDS011;1382;52.142;11.618;2024-02-26T00:07:36;8.90;;;5.60;;
2748;SDS011;1382;52.142;11.618;2024-02-26T00:10:02;6.27;;;5.00;;
2748;SDS011;1382;52.142;11.618;2024-02-26T00:12:30;7.37;;;5.13;;
2748;SDS011;1382;52.142;11.618;2024-02-26T00:14:57;6.10;;;5.07;;
2748;SDS011;1382;52.142;11.618;2024-02-26T00:17:25;7.30;;;5.43;;
2748;SDS011;1382;52.142;11.618;2024-02-26T00:19:52;6.37;;;4.90;;
2748;SDS011;1382;52.142;11.618;2024-02-26T00:22:19;10.03;;;5.60;;
2748;SDS011;1382;52.142;11.618;2024-02-26T00:24:46;7.40;;;4.33;;
2748;SDS011;1382;52.142;11.618;2024-02-26T00:27:13;7.13;;;4.43;;
2748;SDS011;1382;52.142;11.618;2024-02-26T00:29:40;6.50;;;4.10;;
2748;SDS011;1382;52.142;11.618;2024-02-26T00:32:07;7.50;;;4.57;;
2748;SDS011;1382;52.142;11.618;2024-02-26T00:34:35;4.77;;;4.27;;
2748;SDS011;1382;52.142;11.618;2024-02-26T00:37:02;6.27;;;5.20;;
2748;SDS011;1382;52.142;11.618;2024-02-26T00:39:29;5.57;;;4.93;;
2748;SDS011;1382;52.142;11.618;2024-02-26T00:41:56;6.40;;;4.10;;
2748;SDS011;1382;52.142;11.618;2024-02-26T00:44:23;7.10;;;4.30;;
2748;SDS011;1382;52.142;11.618;2024-02-26T00:46:50;5.27;;;3.80;;
2748;SDS011;1382;52.142;11.618;2024-02-26T00:49:17;8.63;;;5.70;;
2748;SDS011;1382;52.142;11.618;2024-02-26T00:51:45;6.70;;;4.43;;
2748;SDS011;1382;52.142;11.618;2024-02-26T00:54:12;8.00;;;5.53;;
2748;SDS011;1382;52.142;11.618;2024-02-26T00:56:39;6.90;;;5.53;;
2748;SDS011;1382;52.142;11.618;2024-02-26T00:59:06;6.83;;;4.43;;
2748;SDS011;1382;52.142;11.618;2024-02-26T01:01:32;5.63;;;4.57;;
2748;SDS011;1382;52.142;11.618;2024-02-26T01:03:59;8.87;;;5.97;;
2748;SDS011;1382;52.142;11.618;2024-02-26T01:06:26;7.70;;;5.20;;
2748;SDS011;1382;52.142;11.618;2024-02-26T01:08:55;6.43;;;5.60;;
2748;SDS011;1382;52.142;11.618;2024-02-26T01:11:21;5.43;;;4.70;;
2748;SDS011;1382;52.142;11.618;2024-02-26T01:13:48;9.77;;;4.97;;
2748;SDS011;1382;52.142;11.618;2024-02-26T01:16:16;6.73;;;4.97;;
2748;SDS011;1382;52.142;11.618;2024-02-26T01:18:43;9.53;;;5.17;;
2748;SDS011;1382;52.142;11.618;2024-02-26T01:21:10;7.80;;;4.90;;
2748;SDS011;1382;52.142;11.618;2024-02-26T01:23:36;5.70;;;4.40;;
2748;SDS011;1382;52.142;11.618;2024-02-26T01:26:05;7.30;;;5.40;;
2748;SDS011;1382;52.142;11.618;2024-02-26T01:28:32;6.33;;;4.40;;
2748;SDS011;1382;52.142;11.618;2024-02-26T01:30:58;6.77;;;4.70;;
2748;SDS011;1382;52.142;11.618;2024-02-26T01:33:25;8.83;;;5.43;;
2748;SDS011;1382;52.142;11.618;2024-02-26T01:35:52;5.50;;;4.27;;
2748;SDS011;1382;52.142;11.618;2024-02-26T01:38:19;8.20;;;4.90;;
2748;SDS011;1382;52.142;11.618;2024-02-26T01:40:46;5.47;;;4.30;;
2748;SDS011;1382;52.142;11.618;2024-02-26T01:43:14;8.97;;;5.90;;
2748;SDS011;1382;52.142;11.618;2024-02-26T01:45:41;7.73;;;4.80;;
2748;SDS011;1382;52.142;11.618;2024-02-26T01:48:08;7.47;;;4.90;;
2748;SDS011;1382;52.142;11.618;2024-02-26T01:50:35;7.57;;;5.43;;
2748;SDS011;1382;52.142;11.618;2024-02-26T01:53:02;7.93;;;5.50;;
2748;SDS011;1382;52.142;11.618;2024-02-26T01:55:28;7.37;;;5.40;;
2748;SDS011;1382;52.142;11.618;2024-02-26T01:57:56;9.03;;;5.17;;
2748;SDS011;1382;52.142;11.618;2024-02-26T02:00:24;7.97;;;5.60;;
2748;SDS011;1382;52.142;11.618;2024-02-26T02:02:52;5.80;;;4.83;;
2748;SDS011;1382;52.142;11.618;2024-02-26T02:05:19;6.70;;;4.70;;
2748;SDS011;1382;52.142;11.618;2024-02-26T02:07:46;6.47;;;4.50;;
2748;SDS011;1382;52.142;11.618;2024-02-26T02:10:14;7.40;;;5.67;;
2748;SDS011;1382;52.142;11.618;2024-02-26T02:12:43;9.60;;;6.10;;
2748;SDS011;1382;52.142;11.618;2024-02-26T02:15:10;6.10;;;5.27;;
2748;SDS011;1382;52.142;11.618;2024-02-26T02:17:38;7.07;;;5.50;;
2748;SDS011;1382;52.142;11.618;2024-02-26T02:20:07;7.90;;;5.07;;
2748;SDS011;1382;52.142;11.618;2024-02-26T02:22:36;7.13;;;5.07;;
2748;SDS011;1382;52.142;11.618;2024-02-26T02:25:03;8.77;;;5.80;;
2748;SDS011;1382;52.142;11.618;2024-02-26T02:27:31;8.00;;;4.70;;
2748;SDS011;1382;52.142;11.618;2024-02-26T02:29:57;6.50;;;5.40;;
2748;SDS011;1382;52.142;11.618;2024-02-26T02:32:24;7.20;;;5.00;;
2748;SDS011;1382;52.142;11.618;2024-02-26T02:34:52;6.57;;;4.70;;
2748;SDS011;1382;52.142;11.618;2024-02-26T02:37:19;10.17;;;5.37;;
2748;SDS011;1382;52.142;11.618;2024-02-26T02:39:48;4.23;;;3.83;;
2748;SDS011;1382;52.142;11.618;2024-02-26T02:42:14;3.87;;;3.50;;
2748;SDS011;1382;52.142;11.618;2024-02-26T02:44:41;5.73;;;4.43;;
2748;SDS011;1382;52.142;11.618;2024-02-26T02:47:08;7.00;;;4.60;;
2748;SDS011;1382;52.142;11.618;2024-02-26T02:49:35;6.43;;;4.53;;
2748;SDS011;1382;52.142;11.618;2024-02-26T02:52:02;9.63;;;4.30;;
2748;SDS011;1382;52.142;11.618;2024-02-26T02:54:29;4.63;;;4.23;;
2748;SDS011;1382;52.142;11.618;2024-02-26T02:56:57;6.07;;;4.77;;
2748;SDS011;1382;52.142;11.618;2024-02-26T02:59:24;8.43;;;4.50;;
2748;SDS011;1382;52.142;11.618;2024-02-26T03:01:51;6.63;;;4.57;;
2748;SDS011;1382;52.142;11.618;2024-02-26T03:04:18;7.53;;;5.63;;
2748;SDS011;1382;52.142;11.618;2024-02-26T03:06:45;8.13;;;5.07;;
2748;SDS011;1382;52.142;11.618;2024-02-26T03:09:12;7.83;;;4.60;;
2748;SDS011;1382;52.142;11.618;2024-02-26T03:11:38;7.53;;;4.47;;
2748;SDS011;1382;52.142;11.618;2024-02-26T03:14:07;4.97;;;4.03;;
2748;SDS011;1382;52.142;11.618;2024-02-26T03:16:33;7.63;;;4.70;;
2748;SDS011;1382;52.142;11.618;2024-02-26T03:19:00;5.03;;;4.03;;
2748;SDS011;1382;52.142;11.618;2024-02-26T03:21:27;6.33;;;3.60;;
2748;SDS011;1382;52.142;11.618;2024-02-26T03:23:54;6.00;;;4.20;;
2748;SDS011;1382;52.142;11.618;2024-02-26T03:26:21;5.70;;;4.30;;
2748;SDS011;1382;52.142;11.618;2024-02-26T03:28:48;4.93;;;3.90;;
2748;SDS011;1382;52.142;11.618;2024-02-26T03:31:16;5.43;;;3.77;;
2748;SDS011;1382;52.142;11.618;2024-02-26T03:33:43;6.20;;;4.47;;
2748;SDS011;1382;52.142;11.618;2024-02-26T03:36:10;5.50;;;4.30;;
2748;SDS011;1382;52.142;11.618;2024-02-26T03:38:37;7.80;;;4.73;;
2748;SDS011;1382;52.142;11.618;2024-02-26T03:41:04;7.77;;;4.50;;
2748;SDS011;1382;52.142;11.618;2024-02-26T03:43:30;5.80;;;4.10;;
2748;SDS011;1382;52.142;11.618;2024-02-26T03:45:57;7.23;;;4.37;;
2748;SDS011;1382;52.142;11.618;2024-02-26T03:48:25;7.90;;;5.00;;
2748;SDS011;1382;52.142;11.618;2024-02-26T03:50:52;5.90;;;4.60;;
2748;SDS011;1382;52.142;11.618;2024-02-26T03:53:19;5.47;;;4.60;;
2748;SDS011;1382;52.142;11.618;2024-02-26T03:55:46;5.90;;;4.27;;
2748;SDS011;1382;52.142;11.618;2024-02-26T03:58:13;6.37;;;4.63;;
2748;SDS011;1382;52.142;11.618;2024-02-26T04:00:39;7.77;;;5.00;;
2748;SDS011;1382;52.142;11.618;2024-02-26T04:03:06;5.97;;;4.43;;
2748;SDS011;1382;52.142;11.618;2024-02-26T04:05:34;6.10;;;4.63;;
2748;SDS011;1382;52.142;11.618;2024-02-26T04:08:01;5.80;;;4.50;;
2748;SDS011;1382;52.142;11.618;2024-02-26T04:10:28;5.80;;;4.40;;
2748;SDS011;1382;52.142;11.618;2024-02-26T04:12:55;4.83;;;3.97;;
2748;SDS011;1382;52.142;11.618;2024-02-26T04:15:22;4.60;;;3.60;;
2748;SDS011;1382;52.142;11.618;2024-02-26T04:17:49;8.10;;;5.03;;
2748;SDS011;1382;52.142;11.618;2024-02-26T04:20:16;4.20;;;3.80;;
2748;SDS011;1382;52.142;11.618;2024-02-26T04:22:44;5.33;;;4.03;;
2748;SDS011;1382;52.142;11.618;2024-02-26T04:25:11;6.83;;;4.43;;
2748;SDS011;1382;52.142;11.618;2024-02-26T04:27:38;5.73;;;4.20;;
2748;SDS011;1382;52.142;11.618;2024-02-26T04:30:05;6.13;;;5.10;;
2748;SDS011;1382;52.142;11.618;2024-02-26T04:32:32;7.53;;;3.80;;
2748;SDS011;1382;52.142;11.618;2024-02-26T04:34:59;6.10;;;4.37;;
2748;SDS011;1382;52.142;11.618;2024-02-26T04:37:26;7.93;;;3.90;;
2748;SDS011;1382;52.142;11.618;2024-02-26T04:39:54;3.90;;;3.10;;
2748;SDS011;1382;52.142;11.618;2024-02-26T04:42:21;5.03;;;3.90;;
2748;SDS011;1382;52.142;11.618;2024-02-26T04:44:48;4.20;;;3.80;;
2748;SDS011;1382;52.142;11.618;2024-02-26T04:47:15;7.47;;;4.77;;
2748;SDS011;1382;52.142;11.618;2024-02-26T04:49:41;4.63;;;3.87;;
2748;SDS011;1382;52.142;11.618;2024-02-26T04:52:09;4.87;;;4.37;;
2748;SDS011;1382;52.142;11.618;2024-02-26T04:54:37;5.13;;;4.10;;
2748;SDS011;1382;52.142;11.618;2024-02-26T04:57:06;5.87;;;4.40;;
2748;SDS011;1382;52.142;11.618;2024-02-26T04:59:33;5.00;;;3.50;;
2748;SDS011;1382;52.142;11.618;2024-02-26T05:02:00;5.43;;;4.60;;
2748;SDS011;1382;52.142;11.618;2024-02-26T05:04:26;7.80;;;4.13;;
2748;SDS011;1382;52.142;11.618;2024-02-26T05:06:53;4.47;;;3.60;;
2748;SDS011;1382;52.142;11.618;2024-02-26T05:09:21;4.03;;;3.63;;
2748;SDS011;1382;52.142;11.618;2024-02-26T05:11:47;5.50;;;3.87;;
2748;SDS011;1382;52.142;11.618;2024-02-26T05:14:15;6.00;;;3.57;;
2748;SDS011;1382;52.142;11.618;2024-02-26T05:16:42;5.30;;;3.77;;
2748;SDS011;1382;52.142;11.618;2024-02-26T05:19:09;6.60;;;4.37;;
2748;SDS011;1382;52.142;11.618;2024-02-26T05:21:37;7.03;;;4.00;;
2748;SDS011;1382;52.142;11.618;2024-02-26T05:24:04;10.97;;;5.00;;
2748;SDS011;1382;52.142;11.618;2024-02-26T05:26:31;5.40;;;3.63;;
2748;SDS011;1382;52.142;11.618;2024-02-26T05:28:58;4.50;;;3.40;;
2748;SDS011;1382;52.142;11.618;2024-02-26T05:31:26;4.93;;;4.37;;
2748;SDS011;1382;52.142;11.618;2024-02-26T05:33:54;5.20;;;3.80;;
2748;SDS011;1382;52.142;11.618;2024-02-26T05:36:21;4.23;;;3.00;;
2748;SDS011;1382;52.142;11.618;2024-02-26T05:38:51;5.23;;;3.50;;
2748;SDS011;1382;52.142;11.618;2024-02-26T05:41:18;7.40;;;4.00;;
2748;SDS011;1382;52.142;11.618;2024-02-26T05:43:45;7.13;;;5.07;;
2748;SDS011;1382;52.142;11.618;2024-02-26T05:46:15;4.73;;;4.10;;
2748;SDS011;1382;52.142;11.618;2024-02-26T05:48:48;7.07;;;4.00;;
2748;SDS011;1382;52.142;11.618;2024-02-26T05:51:17;5.37;;;3.73;;
2748;SDS011;1382;52.142;11.618;2024-02-26T05:53:44;2.90;;;2.57;;
2748;SDS011;1382;52.142;11.618;2024-02-26T05:56:13;5.27;;;4.40;;
2748;SDS011;1382;52.142;11.618;2024-02-26T05:58:40;4.60;;;3.70;;
2748;SDS011;1382;52.142;11.618;2024-02-26T06:01:07;6.73;;;3.80;;
2748;SDS011;1382;52.142;11.618;2024-02-26T06:03:34;7.70;;;4.33;;
2748;SDS011;1382;52.142;11.618;2024-02-26T06:06:03;5.70;;;2.93;;
2748;SDS011;1382;52.142;11.618;2024-02-26T06:08:30;5.53;;;3.47;;
2748;SDS011;1382;52.142;11.618;2024-02-26T06:10:57;4.57;;;3.13;;
2748;SDS011;1382;52.142;11.618;2024-02-26T06:13:25;3.30;;;3.00;;
2748;SDS011;1382;52.142;11.618;2024-02-26T06:15:52;5.27;;;4.07;;
2748;SDS011;1382;52.142;11.618;2024-02-26T06:18:18;7.40;;;3.53;;
2748;SDS011;1382;52.142;11.618;2024-02-26T06:20:45;4.07;;;3.30;;
2748;SDS011;1382;52.142;11.618;2024-02-26T06:23:14;4.93;;;3.73;;
2748;SDS011;1382;52.142;11.618;2024-02-26T06:25:41;4.33;;;3.60;;
2748;SDS011;1382;52.142;11.618;2024-02-26T06:28:08;4.60;;;3.63;;
2748;SDS011;1382;52.142;11.618;2024-02-26T06:30:34;4.90;;;3.50;;
2748;SDS011;1382;52.142;11.618;2024-02-26T06:33:02;4.10;;;3.67;;
2748;SDS011;1382;52.142;11.618;2024-02-26T06:35:29;3.50;;;3.20;;
2748;SDS011;1382;52.142;11.618;2024-02-26T06:37:56;5.20;;;2.90;;
2748;SDS011;1382;52.142;11.618;2024-02-26T06:40:24;4.60;;;3.30;;
2748;SDS011;1382;52.142;11.618;2024-02-26T06:42:50;8.73;;;3.80;;
2748;SDS011;1382;52.142;11.618;2024-02-26T06:45:17;6.67;;;3.87;;
2748;SDS011;1382;52.142;11.618;2024-02-26T06:47:44;5.23;;;4.20;;
2748;SDS011;1382;52.142;11.618;2024-02-26T06:50:12;5.97;;;4.37;;
2748;SDS011;1382;52.142;11.618;2024-02-26T06:52:38;3.73;;;3.33;;
2748;SDS011;1382;52.142;11.618;2024-02-26T06:55:05;11.90;;;4.40;;
2748;SDS011;1382;52.142;11.618;2024-02-26T06:57:34;9.60;;;4.83;;
2748;SDS011;1382;52.142;11.618;2024-02-26T07:00:01;8.13;;;4.00;;
2748;SDS011;1382;52.142;11.618;2024-02-26T07:02:29;5.53;;;4.77;;
2748;SDS011;1382;52.142;11.618;2024-02-26T07:04:55;9.33;;;5.60;;
2748;SDS011;1382;52.142;11.618;2024-02-26T07:07:22;23.77;;;9.40;;
2748;SDS011;1382;52.142;11.618;2024-02-26T07:09:49;26.47;;;9.30;;
2748;SDS011;1382;52.142;11.618;2024-02-26T07:12:16;21.60;;;6.80;;
2748;SDS011;1382;52.142;11.618;2024-02-26T07:14:44;14.07;;;6.03;;
2748;SDS011;1382;52.142;11.618;2024-02-26T07:17:11;22.40;;;8.00;;
2748;SDS011;1382;52.142;11.618;2024-02-26T07:19:38;8.83;;;6.10;;
2748;SDS011;1382;52.142;11.618;2024-02-26T07:22:05;11.07;;;5.30;;
2748;SDS011;1382;52.142;11.618;2024-02-26T07:24:32;6.67;;;4.90;;
2748;SDS011;1382;52.142;11.618;2024-02-26T07:26:59;8.37;;;4.20;;
2748;SDS011;1382;52.142;11.618;2024-02-26T07:29:26;5.60;;;3.93;;
2748;SDS011;1382;52.142;11.618;2024-02-26T07:31:54;4.87;;;4.37;;
2748;SDS011;1382;52.142;11.618;2024-02-26T07:34:22;5.37;;;4.50;;
2748;SDS011;1382;52.142;11.618;2024-02-26T07:36:49;7.27;;;5.00;;
2748;SDS011;1382;52.142;11.618;2024-02-26T07:39:16;4.83;;;3.30;;
2748;SDS011;1382;52.142;11.618;2024-02-26T07:41:42;13.37;;;4.50;;
2748;SDS011;1382;52.142;11.618;2024-02-26T07:44:09;7.53;;;4.57;;
2748;SDS011;1382;52.142;11.618;2024-02-26T07:46:36;11.93;;;5.40;;
2748;SDS011;1382;52.142;11.618;2024-02-26T07:49:04;5.80;;;4.40;;
2748;SDS011;1382;52.142;11.618;2024-02-26T07:51:31;13.03;;;4.70;;
2748;SDS011;1382;52.142;11.618;2024-02-26T07:53:58;4.50;;;4.03;;
2748;SDS011;1382;52.142;11.618;2024-02-26T07:56:25;5.93;;;4.03;;
2748;SDS011;1382;52.142;11.618;2024-02-26T07:58:52;8.67;;;5.23;;
2748;SDS011;1382;52.142;11.618;2024-02-26T08:01:19;10.70;;;5.73;;
2748;SDS011;1382;52.142;11.618;2024-02-26T08:03:46;6.50;;;4.47;;
2748;SDS011;1382;52.142;11.618;2024-02-26T08:06:16;12.53;;;5.37;;
2748;SDS011;1382;52.142;11.618;2024-02-26T08:08:43;9.27;;;5.20;;
2748;SDS011;1382;52.142;11.618;2024-02-26T08:11:09;6.70;;;5.60;;
2748;SDS011;1382;52.142;11.618;2024-02-26T08:13:36;5.80;;;4.30;;
2748;SDS011;1382;52.142;11.618;2024-02-26T08:16:04;8.50;;;4.20;;
2748;SDS011;1382;52.142;11.618;2024-02-26T08:18:31;6.10;;;4.70;;
2748;SDS011;1382;52.142;11.618;2024-02-26T08:20:58;10.83;;;5.70;;
2748;SDS011;1382;52.142;11.618;2024-02-26T08:23:27;6.07;;;5.47;;
2748;SDS011;1382;52.142;11.618;2024-02-26T08:25:54;8.83;;;5.87;;
2748;SDS011;1382;52.142;11.618;2024-02-26T08:28:20;6.40;;;4.77;;
2748;SDS011;1382;52.142;11.618;2024-02-26T08:30:47;8.07;;;4.93;;
2748;SDS011;1382;52.142;11.618;2024-02-26T08:33:14;9.33;;;6.17;;
2748;SDS011;1382;52.142;11.618;2024-02-26T08:35:53;12.60;;;6.17;;
2748;SDS011;1382;52.142;11.618;2024-02-26T08:38:20;27.93;;;7.00;;
2748;SDS011;1382;52.142;11.618;2024-02-26T08:40:48;8.67;;;5.77;;
2748;SDS011;1382;52.142;11.618;2024-02-26T08:43:15;12.70;;;6.13;;
2748;SDS011;1382;52.142;11.618;2024-02-26T08:45:42;8.40;;;5.57;;
2748;SDS011;1382;52.142;11.618;2024-02-26T08:48:09;7.63;;;5.73;;
2748;SDS011;1382;52.142;11.618;2024-02-26T08:50:36;8.20;;;6.90;;
2748;SDS011;1382;52.142;11.618;2024-02-26T08:53:03;13.47;;;6.20;;
2748;SDS011;1382;52.142;11.618;2024-02-26T08:55:33;10.37;;;6.17;;
2748;SDS011;1382;52.142;11.618;2024-02-26T08:58:01;8.30;;;5.40;;
2748;SDS011;1382;52.142;11.618;2024-02-26T09:00:28;9.30;;;7.10;;
2748;SDS011;1382;52.142;11.618;2024-02-26T09:02:55;6.33;;;5.30;;
2748;SDS011;1382;52.142;11.618;2024-02-26T09:05:22;8.40;;;6.27;;
2748;SDS011;1382;52.142;11.618;2024-02-26T09:07:48;11.70;;;7.20;;
2748;SDS011;1382;52.142;11.618;2024-02-26T09:10:15;8.37;;;6.20;;
2748;SDS011;1382;52.142;11.618;2024-02-26T09:12:42;7.03;;;5.43;;
2748;SDS011;1382;52.142;11.618;2024-02-26T09:15:10;10.27;;;6.07;;
2748;SDS011;1382;52.142;11.618;2024-02-26T09:17:37;9.13;;;5.40;;
2748;SDS011;1382;52.142;11.618;2024-02-26T09:20:05;7.83;;;6.07;;
2748;SDS011;1382;52.142;11.618;2024-02-26T09:22:32;9.83;;;6.30;;
2748;SDS011;1382;52.142;11.618;2024-02-26T09:24:59;9.60;;;6.60;;
2748;SDS011;1382;52.142;11.618;2024-02-26T09:27:25;9.53;;;6.30;;
2748;SDS011;1382;52.142;11.618;2024-02-26T09:29:53;12.67;;;7.97;;
2748;SDS011;1382;52.142;11.618;2024-02-26T09:32:21;10.80;;;7.60;;
2748;SDS011;1382;52.142;11.618;2024-02-26T09:34:47;7.40;;;6.30;;
2748;SDS011;1382;52.142;11.618;2024-02-26T09:37:14;9.67;;;7.33;;
2748;SDS011;1382;52.142;11.618;2024-02-26T09:39:47;10.57;;;7.83;;
2748;SDS011;1382;52.142;11.618;2024-02-26T09:42:14;9.50;;;7.60;;
2748;SDS011;1382;52.142;11.618;2024-02-26T09:44:44;9.60;;;7.47;;
2748;SDS011;1382;52.142;11.618;2024-02-26T09:47:12;9.07;;;6.57;;
2748;SDS011;1382;52.142;11.618;2024-02-26T09:49:42;10.30;;;6.50;;
2748;SDS011;1382;52.142;11.618;2024-02-26T09:52:09;9.67;;;6.73;;
2748;SDS011;1382;52.142;11.618;2024-02-26T09:54:36;8.80;;;6.47;;
2748;SDS011;1382;52.142;11.618;2024-02-26T09:57:04;8.20;;;6.63;;
2748;SDS011;1382;52.142;11.618;2024-02-26T09:59:36;17.30;;;8.63;;
2748;SDS011;1382;52.142;11.618;2024-02-26T10:02:07;13.80;;;8.60;;
2748;SDS011;1382;52.142;11.618;2024-02-26T10:04:37;16.73;;;8.83;;
2748;SDS011;1382;52.142;11.618;2024-02-26T10:07:06;14.70;;;9.57;;
2748;SDS011;1382;52.142;11.618;2024-02-26T10:09:37;12.97;;;7.80;;
2748;SDS011;1382;52.142;11.618;2024-02-26T10:12:04;11.57;;;8.63;;
2748;SDS011;1382;52.142;11.618;2024-02-26T10:14:33;12.40;;;8.93;;
2748;SDS011;1382;52.142;11.618;2024-02-26T10:16:59;11.17;;;9.53;;
2748;SDS011;1382;52.142;11.618;2024-02-26T10:19:26;21.63;;;10.47;;
2748;SDS011;1382;52.142;11.618;2024-02-26T10:21:56;13.37;;;9.07;;
2748;SDS011;1382;52.142;11.618;2024-02-26T10:24:24;11.07;;;9.37;;
2748;SDS011;1382;52.142;11.618;2024-02-26T10:26:51;13.27;;;10.13;;
2748;SDS011;1382;52.142;11.618;2024-02-26T10:29:18;11.23;;;7.30;;
2748;SDS011;1382;52.142;11.618;2024-02-26T10:31:46;14.87;;;10.23;;
2748;SDS011;1382;52.142;11.618;2024-02-26T10:34:13;11.83;;;8.97;;
2748;SDS011;1382;52.142;11.618;2024-02-26T10:36:41;12.60;;;8.67;;
2748;SDS011;1382;52.142;11.618;2024-02-26T10:39:19;12.57;;;8.90;;
2748;SDS011;1382;52.142;11.618;2024-02-26T10:41:47;12.10;;;8.13;;
2748;SDS011;1382;52.142;11.618;2024-02-26T10:44:14;10.77;;;7.33;;
2748;SDS011;1382;52.142;11.618;2024-02-26T10:46:45;10.73;;;8.50;;
2748;SDS011;1382;52.142;11.618;2024-02-26T10:49:13;13.03;;;8.77;;
2748;SDS011;1382;52.142;11.618;2024-02-26T10:51:42;11.37;;;8.77;;
2748;SDS011;1382;52.142;11.618;2024-02-26T10:54:12;12.53;;;9.60;;
2748;SDS011;1382;52.142;11.618;2024-02-26T10:56:42;16.80;;;11.17;;
2748;SDS011;1382;52.142;11.618;2024-02-26T10:59:10;10.97;;;6.67;;
2748;SDS011;1382;52.142;11.618;2024-02-26T11:01:38;14.00;;;8.23;;
2748;SDS011;1382;52.142;11.618;2024-02-26T11:04:05;13.00;;;9.20;;
2748;SDS011;1382;52.142;11.618;2024-02-26T11:06:35;13.87;;;8.40;;
2748;SDS011;1382;52.142;11.618;2024-02-26T11:09:03;15.10;;;9.73;;
2748;SDS011;1382;52.142;11.618;2024-02-26T11:11:32;16.43;;;10.20;;
2748;SDS011;1382;52.142;11.618;2024-02-26T11:14:00;21.83;;;8.57;;
2748;SDS011;1382;52.142;11.618;2024-02-26T11:16:30;14.97;;;7.33;;
2748;SDS011;1382;52.142;11.618;2024-02-26T11:18:58;9.57;;;7.43;;
2748;SDS011;1382;52.142;11.618;2024-02-26T11:21:27;11.63;;;8.23;;
2748;SDS011;1382;52.142;11.618;2024-02-26T11:23:54;13.70;;;8.13;;
2748;SDS011;1382;52.142;11.618;2024-02-26T11:26:22;10.23;;;7.50;;
2748;SDS011;1382;52.142;11.618;2024-02-26T11:28:52;17.27;;;11.73;;
2748;SDS011;1382;52.142;11.618;2024-02-26T11:31:20;15.40;;;11.07;;
2748;SDS011;1382;52.142;11.618;2024-02-26T11:33:51;13.73;;;10.57;;
2748;SDS011;1382;52.142;11.618;2024-02-26T11:36:19;14.90;;;11.20;;
2748;SDS011;1382;52.142;11.618;2024-02-26T11:38:46;14.03;;;9.97;;
2748;SDS011;1382;52.142;11.618;2024-02-26T11:41:15;14.07;;;10.07;;
2748;SDS011;1382;52.142;11.618;2024-02-26T11:43:52;15.17;;;11.83;;
2748;SDS011;1382;52.142;11.618;2024-02-26T11:46:26;14.80;;;10.50;;
2748;SDS011;1382;52.142;11.618;2024-02-26T11:48:57;16.77;;;9.17;;
2748;SDS011;1382;52.142;11.618;2024-02-26T11:51:26;14.87;;;10.57;;
2748;SDS011;1382;52.142;11.618;2024-02-26T11:53:53;13.67;;;10.50;;
2748;SDS011;1382;52.142;11.618;2024-02-26T11:56:21;12.40;;;9.33;;
2748;SDS011;1382;52.142;11.618;2024-02-26T11:58:53;15.20;;;11.10;;
2748;SDS011;1382;52.142;11.618;2024-02-26T12:01:36;11.63;;;8.97;;
2748;SDS011;1382;52.142;11.618;2024-02-26T12:04:12;11.00;;;8.80;;
2748;SDS011;1382;52.142;11.618;2024-02-26T12:06:40;12.20;;;10.10;;
2748;SDS011;1382;52.142;11.618;2024-02-26T12:09:12;13.93;;;11.37;;
2748;SDS011;1382;52.142;11.618;2024-02-26T12:11:40;16.90;;;12.43;;
2748;SDS011;1382;52.142;11.618;2024-02-26T12:14:09;16.20;;;9.53;;
2748;SDS011;1382;52.142;11.618;2024-02-26T12:16:36;15.73;;;11.00;;
2748;SDS011;1382;52.142;11.618;2024-02-26T12:19:04;20.83;;;12.87;;
2748;SDS011;1382;52.142;11.618;2024-02-26T12:21:34;17.00;;;11.27;;
2748;SDS011;1382;52.142;11.618;2024-02-26T12:24:09;14.87;;;10.63;;
2748;SDS011;1382;52.142;11.618;2024-02-26T12:26:37;18.80;;;11.30;;
2748;SDS011;1382;52.142;11.618;2024-02-26T12:29:04;15.37;;;9.70;;
2748;SDS011;1382;52.142;11.618;2024-02-26T12:31:31;17.80;;;13.00;;
2748;SDS011;1382;52.142;11.618;2024-02-26T12:33:59;17.13;;;11.83;;
2748;SDS011;1382;52.142;11.618;2024-02-26T12:36:26;13.20;;;10.50;;
2748;SDS011;1382;52.142;11.618;2024-02-26T12:38:55;17.07;;;10.33;;
2748;SDS011;1382;52.142;11.618;2024-02-26T12:41:22;20.67;;;12.80;;
2748;SDS011;1382;52.142;11.618;2024-02-26T12:43:49;17.40;;;11.13;;
2748;SDS011;1382;52.142;11.618;2024-02-26T12:46:16;13.53;;;9.60;;
2748;SDS011;1382;52.142;11.618;2024-02-26T12:48:43;6.30;;;4.40;;
2748;SDS011;1382;52.142;11.618;2024-02-26T12:51:10;17.37;;;12.90;;
2748;SDS011;1382;52.142;11.618;2024-02-26T12:53:38;15.80;;;11.00;;
2748;SDS011;1382;52.142;11.618;2024-02-26T12:56:06;18.50;;;11.77;;
2748;SDS011;1382;52.142;11.618;2024-02-26T12:58:35;19.47;;;11.47;;
2748;SDS011;1382;52.142;11.618;2024-02-26T13:01:03;11.10;;;8.97;;
2748;SDS011;1382;52.142;11.618;2024-02-26T13:03:31;16.83;;;10.20;;
2748;SDS011;1382;52.142;11.618;2024-02-26T13:05:59;16.47;;;12.40;;
2748;SDS011;1382;52.142;11.618;2024-02-26T13:08:26;22.07;;;13.27;;
2748;SDS011;1382;52.142;11.618;2024-02-26T13:10:53;15.47;;;9.90;;
2748;SDS011;1382;52.142;11.618;2024-02-26T13:13:22;11.83;;;8.87;;
2748;SDS011;1382;52.142;11.618;2024-02-26T13:15:49;20.67;;;10.23;;
2748;SDS011;1382;52.142;11.618;2024-02-26T13:18:16;15.20;;;9.93;;
2748;SDS011;1382;52.142;11.618;2024-02-26T13:20:43;15.27;;;10.60;;
2748;SDS011;1382;52.142;11.618;2024-02-26T13:23:11;15.27;;;9.20;;
2748;SDS011;1382;52.142;11.618;2024-02-26T13:25:39;18.50;;;12.60;;
2748;SDS011;1382;52.142;11.618;2024-02-26T13:28:13;18.63;;;13.80;;
2748;SDS011;1382;52.142;11.618;2024-02-26T13:30:42;11.33;;;7.90;;
2748;SDS011;1382;52.142;11.618;2024-02-26T13:33:16;13.67;;;11.63;;
2748;SDS011;1382;52.142;11.618;2024-02-26T13:35:43;14.80;;;11.47;;
2748;SDS011;1382;52.142;11.618;2024-02-26T13:38:10;14.17;;;10.93;;
2748;SDS011;1382;52.142;11.618;2024-02-26T13:40:37;11.90;;;9.87;;
2748;SDS011;1382;52.142;11.618;2024-02-26T13:43:04;26.53;;;9.97;;
2748;SDS011;1382;52.142;11.618;2024-02-26T13:45:33;16.10;;;9.50;;
2748;SDS011;1382;52.142;11.618;2024-02-26T13:48:02;13.30;;;10.00;;
2748;SDS011;1382;52.142;11.618;2024-02-26T13:50:30;14.43;;;9.50;;
2748;SDS011;1382;52.142;11.618;2024-02-26T13:52:58;17.93;;;9.20;;
2748;SDS011;1382;52.142;11.618;2024-02-26T13:55:25;14.77;;;11.03;;
2748;SDS011;1382;52.142;11.618;2024-02-26T13:57:52;16.20;;;9.70;;
2748;SDS011;1382;52.142;11.618;2024-02-26T14:00:19;17.50;;;12.47;;
2748;SDS011;1382;52.142;11.618;2024-02-26T14:02:46;15.53;;;10.33;;
2748;SDS011;1382;52.142;11.618;2024-02-26T14:05:14;14.50;;;9.10;;
2748;SDS011;1382;52.142;11.618;2024-02-26T14:07:41;16.60;;;10.70;;
2748;SDS011;1382;52.142;11.618;2024-02-26T14:10:08;15.97;;;11.70;;
2748;SDS011;1382;52.142;11.618;2024-02-26T14:12:37;16.63;;;10.73;;
2748;SDS011;1382;52.142;11.618;2024-02-26T14:15:04;18.60;;;10.87;;
2748;SDS011;1382;52.142;11.618;2024-02-26T14:17:32;17.63;;;9.07;;
2748;SDS011;1382;52.142;11.618;2024-02-26T14:20:00;15.10;;;11.00;;
2748;SDS011;1382;52.142;11.618;2024-02-26T14:22:28;12.77;;;8.70;;
2748;SDS011;1382;52.142;11.618;2024-02-26T14:24:55;13.60;;;10.23;;
2748;SDS011;1382;52.142;11.618;2024-02-26T14:27:21;12.63;;;10.50;;
2748;SDS011;1382;52.142;11.618;2024-02-26T14:29:49;12.87;;;9.30;;
2748;SDS011;1382;52.142;11.618;2024-02-26T14:32:16;12.20;;;9.53;;
2748;SDS011;1382;52.142;11.618;2024-02-26T14:34:42;11.17;;;8.47;;
2748;SDS011;1382;52.142;11.618;2024-02-26T14:37:09;8.47;;;4.20;;
2748;SDS011;1382;52.142;11.618;2024-02-26T14:39:38;10.87;;;7.13;;
2748;SDS011;1382;52.142;11.618;2024-02-26T14:42:05;7.27;;;5.67;;
2748;SDS011;1382;52.142;11.618;2024-02-26T14:44:32;9.70;;;7.67;;
2748;SDS011;1382;52.142;11.618;2024-02-26T14:46:59;18.33;;;10.17;;
2748;SDS011;1382;52.142;11.618;2024-02-26T14:49:28;7.83;;;5.30;;
2748;SDS011;1382;52.142;11.618;2024-02-26T14:51:55;18.23;;;9.50;;
2748;SDS011;1382;52.142;11.618;2024-02-26T14:54:21;10.83;;;6.63;;